createdAt,value
2023-01-14T00:01:51.578Z,3.89
2023-01-14T00:04:30.202Z,3.97
2023-01-14T00:07:02.673Z,4.00
2023-01-14T00:09:46.272Z,4.11
2023-01-14T00:12:23.413Z,4.03
2023-01-14T00:14:59.081Z,4.04
2023-01-14T00:17:47.250Z,4.01
2023-01-14T00:20:26.042Z,4.13
2023-01-14T00:23:13.221Z,4.10
2023-01-14T00:25:48.358Z,4.06
2023-01-14T00:28:26.654Z,4.07
2023-01-14T00:31:07.405Z,4.03
2023-01-14T00:33:46.329Z,4.04
2023-01-14T00:36:25.270Z,4.05
2023-01-14T00:39:01.249Z,3.89
2023-01-14T00:41:37.470Z,3.93
2023-01-14T00:44:23.872Z,3.74
2023-01-14T00:46:58.950Z,3.78
2023-01-14T00:49:37.204Z,3.75
2023-01-14T00:52:15.461Z,3.78
2023-01-14T00:54:58.799Z,3.54
2023-01-14T00:57:47.374Z,3.59
2023-01-14T01:00:22.659Z,3.64
2023-01-14T01:03:03.398Z,3.53
2023-01-14T01:05:48.262Z,3.46
2023-01-14T01:08:27.611Z,3.51
2023-01-14T01:11:04.818Z,3.52
2023-01-14T01:13:42.785Z,3.57
2023-01-14T01:16:24.932Z,3.60
2023-01-14T01:19:12.063Z,3.62
2023-01-14T01:21:57.799Z,3.62
2023-01-14T01:24:36.032Z,3.70
2023-01-14T01:27:16.538Z,3.72
2023-01-14T01:29:45.943Z,3.63
2023-01-14T01:32:26.504Z,3.75
2023-01-14T01:35:04.277Z,3.73
2023-01-14T01:37:49.347Z,3.75
2023-01-14T01:40:28.229Z,3.77
2023-01-14T01:43:16.984Z,3.75
2023-01-14T01:45:57.523Z,3.80
2023-01-14T01:48:48.119Z,3.81
2023-01-14T01:51:25.646Z,3.88
2023-01-14T01:54:05.861Z,3.84
2023-01-14T01:56:41.060Z,3.82
2023-01-14T01:59:20.366Z,3.83
2023-01-14T02:02:00.225Z,3.79
2023-01-14T02:04:35.815Z,3.99
2023-01-14T02:07:21.409Z,4.03
2023-01-14T02:09:57.228Z,3.97
2023-01-14T02:12:51.123Z,3.98
2023-01-14T02:15:42.906Z,3.97
2023-01-14T02:18:52.462Z,3.98
2023-01-14T02:21:41.392Z,3.94
2023-01-14T02:24:37.774Z,3.99
2023-01-14T02:27:39.895Z,4.04
2023-01-14T02:30:33.194Z,3.98
2023-01-14T02:33:24.817Z,3.99
2023-01-14T02:36:08.676Z,3.98
2023-01-14T02:39:00.000Z,4.00
2023-01-14T02:42:35.929Z,4.02
2023-01-14T02:45:12.241Z,3.99
2023-01-14T02:47:48.943Z,3.97
2023-01-14T02:50:32.293Z,3.94
2023-01-14T02:53:12.183Z,4.08
2023-01-14T02:55:56.854Z,4.00
2023-01-14T02:59:14.888Z,4.02
2023-01-14T03:02:34.309Z,3.99
2023-01-14T03:05:23.350Z,3.97
2023-01-14T03:08:40.477Z,4.01
2023-01-14T03:11:22.147Z,4.08
2023-01-14T03:14:33.373Z,4.08
2023-01-14T03:17:31.245Z,4.07
2023-01-14T03:20:53.126Z,4.12
2023-01-14T03:23:42.603Z,4.14
2023-01-14T03:26:32.416Z,4.17
2023-01-14T03:29:23.795Z,4.21
2023-01-14T03:32:28.606Z,4.21
2023-01-14T03:35:10.369Z,4.25
2023-01-14T03:37:53.438Z,4.19
2023-01-14T03:41:09.629Z,4.18
2023-01-14T03:44:23.971Z,4.25
2023-01-14T03:47:08.216Z,4.20
2023-01-14T03:49:50.801Z,4.18
2023-01-14T03:52:51.191Z,4.24
2023-01-14T03:55:46.577Z,4.29
2023-01-14T03:58:30.199Z,4.20
2023-01-14T04:01:34.981Z,4.21
2023-01-14T04:04:18.547Z,4.23
2023-01-14T04:06:55.970Z,4.16
2023-01-14T04:09:33.997Z,4.27
2023-01-14T04:12:16.897Z,4.23
2023-01-14T04:15:13.462Z,4.23
2023-01-14T04:17:51.380Z,4.25
2023-01-14T04:20:32.652Z,4.14
2023-01-14T04:23:17.262Z,4.08
2023-01-14T04:25:52.469Z,4.22
2023-01-14T04:28:30.595Z,4.20
2023-01-14T04:31:10.960Z,4.23
2023-01-14T04:33:51.781Z,4.19
2023-01-14T04:36:30.016Z,4.25
2023-01-14T04:39:13.330Z,4.18
2023-01-14T04:42:07.275Z,4.22
2023-01-14T04:44:47.964Z,4.08
2023-01-14T04:47:29.149Z,4.03
2023-01-14T04:50:23.963Z,4.08
2023-01-14T04:53:25.697Z,4.14
2023-01-14T04:56:09.045Z,4.07
2023-01-14T04:58:47.152Z,4.06
2023-01-14T05:01:22.468Z,4.08
2023-01-14T05:04:02.942Z,3.99
2023-01-14T05:06:43.657Z,3.96
2023-01-14T05:09:21.838Z,3.90
2023-01-14T05:12:03.230Z,4.02
2023-01-14T05:14:43.478Z,3.97
2023-01-14T05:17:15.516Z,3.80
2023-01-14T05:19:54.222Z,3.76
2023-01-14T05:22:30.400Z,3.89
2023-01-14T05:25:14.220Z,3.96
2023-01-14T05:28:03.399Z,3.96
2023-01-14T05:30:47.406Z,3.94
2023-01-14T05:33:39.379Z,3.87
2023-01-14T05:36:10.415Z,3.80
2023-01-14T05:38:42.475Z,3.82
2023-01-14T05:41:26.581Z,3.74
2023-01-14T05:44:17.505Z,3.75
2023-01-14T05:46:54.179Z,3.69
2023-01-14T05:49:34.433Z,3.58
2023-01-14T05:52:21.075Z,3.64
2023-01-14T05:54:55.986Z,3.70
2023-01-14T05:57:35.957Z,3.61
2023-01-14T06:00:34.738Z,3.63
2023-01-14T06:03:43.990Z,3.63
2023-01-14T06:06:30.768Z,3.69
2023-01-14T06:09:13.714Z,3.62
2023-01-14T06:12:03.424Z,3.60
2023-01-14T06:14:49.065Z,3.67
2023-01-14T06:17:29.252Z,3.72
2023-01-14T06:20:09.905Z,3.68
2023-01-14T06:22:56.544Z,3.77
2023-01-14T06:25:23.617Z,3.61
2023-01-14T06:28:02.039Z,3.74
2023-01-14T06:30:45.110Z,3.70
2023-01-14T06:33:27.656Z,3.83
2023-01-14T06:36:08.756Z,3.76
2023-01-14T06:38:56.139Z,3.75
2023-01-14T06:41:38.852Z,3.79
2023-01-14T06:44:10.646Z,3.73
2023-01-14T06:46:51.242Z,3.79
2023-01-14T06:49:31.659Z,3.79
2023-01-14T06:52:09.615Z,3.78
2023-01-14T06:54:52.940Z,3.73
2023-01-14T06:57:41.236Z,3.72
2023-01-14T07:00:24.566Z,3.76
2023-01-14T07:03:10.677Z,3.82
2023-01-14T07:05:53.427Z,3.88
2023-01-14T07:08:36.644Z,3.81
2023-01-14T07:11:17.222Z,3.45
2023-01-14T07:13:49.523Z,3.52
2023-01-14T07:16:33.647Z,3.46
2023-01-14T07:19:17.591Z,3.43
2023-01-14T07:22:01.569Z,3.56
2023-01-14T07:24:33.800Z,3.63
2023-01-14T07:27:14.580Z,3.68
2023-01-14T07:29:51.118Z,3.62
2023-01-14T07:32:26.358Z,3.38
2023-01-14T07:35:10.242Z,3.57
2023-01-14T07:37:54.205Z,3.54
2023-01-14T07:40:41.971Z,3.34
2023-01-14T07:43:20.183Z,3.31
2023-01-14T07:46:01.899Z,3.46
2023-01-14T07:48:41.305Z,3.31
2023-01-14T07:51:17.282Z,3.42
2023-01-14T07:53:52.308Z,3.40
2023-01-14T07:56:39.219Z,3.53
2023-01-14T07:59:23.526Z,3.62
2023-01-14T08:02:04.936Z,3.74
2023-01-14T08:04:41.903Z,3.61
2023-01-14T08:07:19.691Z,3.54
2023-01-14T08:10:03.933Z,3.58
2023-01-14T08:12:47.569Z,3.56
2023-01-14T08:15:25.817Z,3.60
2023-01-14T08:18:06.847Z,3.57
2023-01-14T08:20:54.244Z,3.75
2023-01-14T08:23:36.525Z,3.75
2023-01-14T08:26:22.163Z,3.92
2023-01-14T08:29:12.219Z,3.89
2023-01-14T08:31:48.607Z,4.04
2023-01-14T08:34:28.801Z,4.05
2023-01-14T08:37:14.490Z,3.97
2023-01-14T08:39:53.203Z,4.05
2023-01-14T08:42:33.892Z,4.04
2023-01-14T08:45:11.541Z,4.06
2023-01-14T08:47:46.963Z,4.10
2023-01-14T08:50:28.224Z,4.26
2023-01-14T08:53:05.539Z,4.13
2023-01-14T08:55:47.392Z,4.05
2023-01-14T08:58:24.927Z,4.32
2023-01-14T09:01:12.871Z,4.45
2023-01-14T09:03:53.117Z,4.53
2023-01-14T09:06:31.288Z,4.57
2023-01-14T09:09:21.968Z,4.38
2023-01-14T09:12:03.520Z,4.46
2023-01-14T09:15:00.192Z,4.48
2023-01-14T09:17:37.064Z,4.62
2023-01-14T09:20:28.048Z,4.67
2023-01-14T09:23:08.161Z,4.66
2023-01-14T09:25:45.052Z,4.78
2023-01-14T09:28:28.306Z,4.82
2023-01-14T09:31:08.648Z,4.94
2023-01-14T09:33:47.599Z,5.06
2023-01-14T09:36:22.719Z,5.09
2023-01-14T09:39:03.595Z,5.13
2023-01-14T09:41:52.800Z,5.22
2023-01-14T09:44:34.924Z,5.32
2023-01-14T09:47:19.192Z,5.40
2023-01-14T09:49:55.326Z,5.33
2023-01-14T09:53:10.515Z,5.54
2023-01-14T09:55:55.864Z,5.55
2023-01-14T09:58:41.362Z,5.67
2023-01-14T10:01:38.946Z,5.73
2023-01-14T10:04:21.237Z,5.53
2023-01-14T10:07:07.873Z,5.59
2023-01-14T10:09:52.086Z,5.70
2023-01-14T10:12:58.453Z,5.72
2023-01-14T10:15:36.393Z,5.78
2023-01-14T10:18:18.834Z,5.85
2023-01-14T10:21:39.714Z,5.78
2023-01-14T10:24:24.823Z,5.91
2023-01-14T10:27:05.234Z,5.68
2023-01-14T10:29:46.464Z,5.74
2023-01-14T10:32:26.236Z,5.77
2023-01-14T10:35:04.158Z,5.64
2023-01-14T10:37:46.389Z,5.81
2023-01-14T10:40:30.519Z,6.04
2023-01-14T10:43:04.506Z,6.01
2023-01-14T10:45:37.679Z,6.15
2023-01-14T10:48:26.115Z,6.13
2023-01-14T10:51:37.335Z,6.24
2023-01-14T10:54:26.089Z,6.37
2023-01-14T10:57:23.238Z,6.32
2023-01-14T11:00:00.929Z,6.46
2023-01-14T11:02:53.262Z,6.60
2023-01-14T11:05:40.003Z,6.58
2023-01-14T11:08:41.147Z,6.57
2023-01-14T11:11:41.380Z,6.58
2023-01-14T11:14:54.171Z,6.66
2023-01-14T11:20:31.157Z,6.66
2023-01-14T11:23:41.148Z,6.79
2023-01-14T11:26:37.936Z,6.87
2023-01-14T11:29:34.325Z,7.09
2023-01-14T11:32:25.293Z,7.12
2023-01-14T11:35:10.010Z,7.22
2023-01-14T11:37:54.709Z,7.28
2023-01-14T11:40:59.998Z,7.25
2023-01-14T11:43:42.814Z,7.31
2023-01-14T11:46:21.112Z,7.37
2023-01-14T11:49:26.679Z,7.16
2023-01-14T11:52:08.118Z,7.34
2023-01-14T11:54:53.805Z,7.23
2023-01-14T11:57:32.117Z,7.36
2023-01-14T12:00:13.147Z,7.57
2023-01-14T12:02:49.778Z,7.46
2023-01-14T12:05:30.069Z,7.54
2023-01-14T12:08:08.095Z,7.64
2023-01-14T12:10:51.014Z,7.69
2023-01-14T12:14:06.170Z,7.88
2023-01-14T12:16:58.160Z,7.88
2023-01-14T12:19:48.910Z,7.93
2023-01-14T12:22:34.513Z,7.92
2023-01-14T12:25:27.694Z,8.00
2023-01-14T12:28:11.476Z,8.13
2023-01-14T12:31:04.840Z,8.07
2023-01-14T12:33:49.269Z,8.09
2023-01-14T12:36:42.469Z,8.27
2023-01-14T12:39:40.826Z,8.15
2023-01-14T12:42:58.879Z,8.28
2023-01-14T12:45:46.037Z,8.31
2023-01-14T12:48:25.406Z,8.23
2023-01-14T12:51:23.935Z,8.29
2023-01-14T12:54:08.649Z,8.27
2023-01-14T12:57:11.204Z,8.22
2023-01-14T12:59:48.211Z,8.32
2023-01-14T13:02:52.823Z,8.47
2023-01-14T13:05:42.936Z,8.46
2023-01-14T13:08:40.159Z,8.53
2023-01-14T13:12:01.544Z,8.51
2023-01-14T13:14:57.896Z,8.55
2023-01-14T13:17:44.449Z,8.47
2023-01-14T13:20:58.576Z,8.62
2023-01-14T13:23:56.763Z,8.40
2023-01-14T13:26:38.018Z,8.53
2023-01-14T13:29:28.886Z,8.69
2023-01-14T13:32:01.914Z,8.72
2023-01-14T13:34:39.451Z,8.76
2023-01-14T13:37:21.963Z,8.71
2023-01-14T13:40:09.007Z,8.64
2023-01-14T13:43:01.180Z,8.78
2023-01-14T13:45:38.907Z,8.69
2023-01-14T13:48:46.515Z,8.62
2023-01-14T13:51:35.342Z,8.59
2023-01-14T13:54:28.665Z,8.63
2023-01-14T13:57:18.119Z,8.61
2023-01-14T14:00:02.001Z,8.72
2023-01-14T14:02:51.925Z,8.71
2023-01-14T14:05:45.882Z,8.73
2023-01-14T14:08:37.811Z,8.63
2023-01-14T14:11:25.133Z,8.55
2023-01-14T14:14:08.941Z,8.54
2023-01-14T14:16:55.066Z,8.70
2023-01-14T14:19:53.375Z,8.59
2023-01-14T14:22:44.767Z,8.44
2023-01-14T14:25:31.035Z,8.24
2023-01-14T14:28:13.259Z,8.26
2023-01-14T14:30:58.488Z,8.29
2023-01-14T14:33:44.197Z,8.21
2023-01-14T14:36:28.469Z,8.13
2023-01-14T14:39:05.733Z,8.15
2023-01-14T14:41:51.073Z,8.01
2023-01-14T14:44:35.556Z,7.85
2023-01-14T14:47:49.180Z,7.79
2023-01-14T14:50:44.549Z,7.69
2023-01-14T14:53:45.890Z,7.65
2023-01-14T14:56:36.415Z,7.52
2023-01-14T14:59:19.221Z,7.51
2023-01-14T15:02:00.859Z,7.45
2023-01-14T15:04:42.892Z,7.35
2023-01-14T15:07:33.534Z,7.29
2023-01-14T15:10:29.457Z,7.02
2023-01-14T15:13:10.219Z,7.03
2023-01-14T15:16:04.999Z,6.98
2023-01-14T15:18:40.410Z,6.79
2023-01-14T15:21:16.200Z,6.70
2023-01-14T15:24:01.373Z,6.62
2023-01-14T15:26:39.786Z,6.49
2023-01-14T15:29:29.169Z,6.40
2023-01-14T15:32:31.582Z,6.06
2023-01-14T15:35:43.819Z,5.96
2023-01-14T15:38:31.496Z,5.90
2023-01-14T15:41:14.174Z,5.90
2023-01-14T15:44:01.732Z,5.80
2023-01-14T15:46:45.577Z,5.78
2023-01-14T15:49:20.969Z,5.73
2023-01-14T15:51:58.719Z,5.66
2023-01-14T15:54:46.502Z,5.56
2023-01-14T15:57:30.813Z,5.53
2023-01-14T16:00:24.262Z,5.46
2023-01-14T16:03:23.528Z,5.38
2023-01-14T16:05:58.703Z,5.19
2023-01-14T16:08:53.150Z,5.17
2023-01-14T16:11:31.378Z,5.07
2023-01-14T16:14:35.971Z,5.04
2023-01-14T16:17:23.956Z,4.94
2023-01-14T16:20:20.337Z,5.03
2023-01-14T16:22:59.221Z,5.00
2023-01-14T16:25:44.428Z,4.92
2023-01-14T16:28:37.223Z,4.94
2023-01-14T16:31:22.207Z,4.93
2023-01-14T16:34:10.603Z,4.86
2023-01-14T16:36:51.235Z,4.82
2023-01-14T16:39:29.413Z,4.75
2023-01-14T16:42:06.599Z,4.65
2023-01-14T16:44:49.962Z,4.59
2023-01-14T16:47:30.726Z,4.51
2023-01-14T16:50:23.889Z,4.34
2023-01-14T16:53:10.119Z,4.34
2023-01-14T16:55:50.875Z,4.33
2023-01-14T16:58:38.183Z,4.24
2023-01-14T17:01:27.058Z,4.13
2023-01-14T17:04:07.525Z,4.09
2023-01-14T17:06:47.679Z,4.03
2023-01-14T17:09:25.404Z,3.93
2023-01-14T17:12:19.550Z,3.83
2023-01-14T17:14:52.176Z,3.82
2023-01-14T17:17:32.394Z,3.81
2023-01-14T17:20:16.287Z,3.77
2023-01-14T17:22:58.928Z,3.70
2023-01-14T17:25:46.236Z,3.61
2023-01-14T17:28:21.489Z,3.59
2023-01-14T17:30:58.201Z,3.62
2023-01-14T17:33:36.618Z,3.52
2023-01-14T17:36:19.211Z,3.60
2023-01-14T17:39:01.899Z,3.54
2023-01-14T17:41:53.528Z,3.50
2023-01-14T17:44:44.106Z,3.54
2023-01-14T17:47:29.386Z,3.57
2023-01-14T17:50:01.544Z,3.56
2023-01-14T17:52:44.653Z,3.54
2023-01-14T17:55:26.915Z,3.65
2023-01-14T17:58:04.823Z,3.73
2023-01-14T18:01:00.516Z,3.67
2023-01-14T18:03:35.894Z,3.73
2023-01-14T18:06:19.043Z,3.80
2023-01-14T18:08:56.445Z,3.78
2023-01-14T18:11:37.713Z,3.79
2023-01-14T18:14:15.560Z,3.84
2023-01-14T18:16:53.892Z,3.85
2023-01-14T18:19:42.709Z,3.90
2023-01-14T18:22:29.527Z,3.92
2023-01-14T18:25:21.915Z,3.97
2023-01-14T18:28:02.703Z,3.88
2023-01-14T18:30:40.513Z,3.88
2023-01-14T18:33:16.122Z,3.91
2023-01-14T18:35:56.875Z,3.93
2023-01-14T18:38:43.944Z,3.90
2023-01-14T18:41:17.862Z,3.90
2023-01-14T18:43:59.355Z,3.94
2023-01-14T18:46:36.318Z,3.90
2023-01-14T18:49:19.232Z,3.99
2023-01-14T18:51:55.457Z,3.95
2023-01-14T18:54:50.188Z,3.88
2023-01-14T18:57:34.824Z,3.78
2023-01-14T19:00:25.851Z,3.77
2023-01-14T19:03:09.751Z,3.86
2023-01-14T19:05:53.820Z,3.90
2023-01-14T19:08:49.966Z,3.91
2023-01-14T19:12:08.340Z,3.97
2023-01-14T19:14:54.511Z,3.89
2023-01-14T19:17:31.927Z,3.88
2023-01-14T19:20:20.890Z,3.87
2023-01-14T19:23:02.138Z,3.94
2023-01-14T19:25:45.664Z,3.90
2023-01-14T19:28:31.063Z,3.93
2023-01-14T19:31:14.688Z,3.87
2023-01-14T19:33:57.130Z,3.84
2023-01-14T19:36:36.040Z,3.95
2023-01-14T19:39:14.877Z,3.96
2023-01-14T19:41:59.309Z,3.99
2023-01-14T19:44:44.563Z,4.02
2023-01-14T19:47:26.261Z,4.01
2023-01-14T19:50:07.091Z,3.83
2023-01-14T19:52:53.036Z,3.95
2023-01-14T19:55:33.396Z,3.97
2023-01-14T19:58:10.682Z,3.87
2023-01-14T20:00:53.107Z,3.85
2023-01-14T20:03:30.258Z,3.76
2023-01-14T20:09:14.308Z,3.77
2023-01-14T20:11:56.979Z,3.81
2023-01-14T20:14:40.149Z,3.92
2023-01-14T20:17:20.340Z,3.86
2023-01-14T20:20:16.248Z,3.84
2023-01-14T20:23:10.851Z,3.76
2023-01-14T20:25:56.172Z,3.75
2023-01-14T20:28:34.009Z,3.64
2023-01-14T20:31:22.141Z,3.70
2023-01-14T20:34:11.426Z,3.51
2023-01-14T20:36:50.443Z,3.51
2023-01-14T20:39:33.751Z,3.64
2023-01-14T20:42:31.754Z,3.70
2023-01-14T20:45:20.484Z,3.57
2023-01-14T20:48:25.174Z,3.57
2023-01-14T20:51:27.612Z,3.65
2023-01-14T20:54:01.304Z,3.66
2023-01-14T20:56:40.492Z,3.61
2023-01-14T20:59:31.747Z,3.75
2023-01-14T21:02:25.551Z,3.78
2023-01-14T21:05:03.826Z,3.75
2023-01-14T21:07:40.104Z,3.74
2023-01-14T21:10:27.259Z,3.69
2023-01-14T21:13:39.005Z,3.83
2023-01-14T21:16:33.060Z,3.64
2023-01-14T21:19:23.442Z,3.63
2023-01-14T21:22:22.725Z,3.76
2023-01-14T21:25:07.166Z,3.85
2023-01-14T21:27:46.519Z,3.78
2023-01-14T21:30:24.538Z,3.77
2023-01-14T21:33:09.436Z,3.57
2023-01-14T21:35:48.187Z,3.65
2023-01-14T21:38:26.087Z,3.65
2023-01-14T21:41:25.408Z,3.70
2023-01-14T21:44:03.659Z,3.64
2023-01-14T21:46:45.230Z,3.70
2023-01-14T21:49:20.379Z,3.79
2023-01-14T21:52:01.427Z,3.81
2023-01-14T21:54:42.707Z,3.83
2023-01-14T21:57:23.181Z,3.66
2023-01-14T22:00:03.630Z,3.68
2023-01-14T22:02:50.701Z,3.62
2023-01-14T22:05:43.669Z,3.62
2023-01-14T22:08:21.939Z,3.67
2023-01-14T22:10:59.676Z,3.54
2023-01-14T22:13:37.696Z,3.44
2023-01-14T22:16:15.841Z,3.40
2023-01-14T22:18:53.534Z,3.47
2023-01-14T22:21:34.765Z,3.39
2023-01-14T22:24:14.081Z,3.42
2023-01-14T22:26:47.181Z,3.38
2023-01-14T22:29:24.925Z,3.44
2023-01-14T22:32:10.420Z,3.39
2023-01-14T22:34:50.537Z,3.43
2023-01-14T22:37:31.545Z,3.50
2023-01-14T22:40:28.740Z,3.47
2023-01-14T22:43:12.833Z,3.44
2023-01-14T22:45:48.760Z,3.27
2023-01-14T22:48:30.107Z,3.37
2023-01-14T22:51:10.369Z,3.37
2023-01-14T22:53:56.623Z,3.46
2023-01-14T22:56:34.810Z,3.41
2023-01-14T22:59:15.296Z,3.44
2023-01-14T23:01:53.043Z,3.35
2023-01-14T23:04:32.469Z,3.29
2023-01-14T23:07:21.062Z,3.27
2023-01-14T23:10:07.569Z,3.33
2023-01-14T23:12:48.603Z,3.31
2023-01-14T23:15:47.075Z,3.22
2023-01-14T23:18:30.726Z,3.32
2023-01-14T23:21:24.739Z,3.28
2023-01-14T23:23:59.883Z,3.33
2023-01-14T23:26:47.063Z,3.32
2023-01-14T23:29:32.989Z,3.28
2023-01-14T23:32:08.298Z,3.29
2023-01-14T23:34:43.552Z,3.33
2023-01-14T23:37:18.573Z,3.35
2023-01-14T23:40:01.661Z,3.39
2023-01-14T23:42:42.272Z,3.41
2023-01-14T23:45:24.907Z,3.35
2023-01-14T23:47:57.494Z,3.21
2023-01-14T23:50:40.642Z,3.15
2023-01-14T23:53:18.379Z,3.18
2023-01-14T23:55:57.238Z,3.23
2023-01-14T23:58:45.070Z,3.08
